sensor_id;sensor_type;location;lat;lon;timestamp;P1;durP1;ratioP1;P2;durP2;ratioP2
20026;SDS011;10174;42.688;23.344;2022-09-01T00:02:13;40.20;;;26.30;;
20026;SDS011;10174;42.688;23.344;2022-09-01T00:04:42;45.35;;;27.45;;
20026;SDS011;10174;42.688;23.344;2022-09-01T00:07:09;41.75;;;26.13;;
20026;SDS011;10174;42.688;23.344;2022-09-01T00:09:36;46.80;;;27.88;;
20026;SDS011;10174;42.688;23.344;2022-09-01T00:12:03;36.58;;;26.42;;
20026;SDS011;10174;42.688;23.344;2022-09-01T00:14:32;43.30;;;26.27;;
20026;SDS011;10174;42.688;23.344;2022-09-01T00:17:01;38.25;;;26.38;;
20026;SDS011;10174;42.688;23.344;2022-09-01T00:19:28;38.35;;;25.98;;
20026;SDS011;10174;42.688;23.344;2022-09-01T00:21:54;37.22;;;25.85;;
20026;SDS011;10174;42.688;23.344;2022-09-01T00:24:20;37.33;;;24.75;;
20026;SDS011;10174;42.688;23.344;2022-09-01T00:26:47;36.70;;;23.63;;
20026;SDS011;10174;42.688;23.344;2022-09-01T00:29:13;35.88;;;23.38;;
20026;SDS011;10174;42.688;23.344;2022-09-01T00:31:39;31.65;;;23.65;;
20026;SDS011;10174;42.688;23.344;2022-09-01T00:34:05;36.33;;;23.80;;
20026;SDS011;10174;42.688;23.344;2022-09-01T00:36:30;39.22;;;23.35;;
20026;SDS011;10174;42.688;23.344;2022-09-01T00:38:56;34.17;;;24.35;;
20026;SDS011;10174;42.688;23.344;2022-09-01T00:41:23;38.47;;;24.15;;
20026;SDS011;10174;42.688;23.344;2022-09-01T00:43:51;38.58;;;24.90;;
20026;SDS011;10174;42.688;23.344;2022-09-01T00:46:25;39.13;;;24.95;;
20026;SDS011;10174;42.688;23.344;2022-09-01T00:49:31;34.25;;;23.63;;
20026;SDS011;10174;42.688;23.344;2022-09-01T00:51:54;39.78;;;23.10;;
20026;SDS011;10174;42.688;23.344;2022-09-01T00:54:24;34.08;;;23.08;;
20026;SDS011;10174;42.688;23.344;2022-09-01T00:56:52;40.53;;;23.52;;
20026;SDS011;10174;42.688;23.344;2022-09-01T00:59:20;37.58;;;22.95;;
20026;SDS011;10174;42.688;23.344;2022-09-01T01:01:47;38.00;;;23.80;;
20026;SDS011;10174;42.688;23.344;2022-09-01T01:04:13;38.92;;;24.33;;
20026;SDS011;10174;42.688;23.344;2022-09-01T01:06:43;37.85;;;23.55;;
20026;SDS011;10174;42.688;23.344;2022-09-01T01:09:14;40.08;;;24.30;;
20026;SDS011;10174;42.688;23.344;2022-09-01T01:11:42;35.70;;;25.40;;
20026;SDS011;10174;42.688;23.344;2022-09-01T01:14:11;37.33;;;25.58;;
20026;SDS011;10174;42.688;23.344;2022-09-01T01:16:40;41.10;;;24.77;;
20026;SDS011;10174;42.688;23.344;2022-09-01T01:19:55;39.15;;;25.27;;
20026;SDS011;10174;42.688;23.344;2022-09-01T01:22:32;36.22;;;24.48;;
20026;SDS011;10174;42.688;23.344;2022-09-01T01:25:27;40.45;;;24.42;;
20026;SDS011;10174;42.688;23.344;2022-09-01T01:30:46;35.92;;;24.50;;
20026;SDS011;10174;42.688;23.344;2022-09-01T01:33:23;38.22;;;23.95;;
20026;SDS011;10174;42.688;23.344;2022-09-01T01:35:51;39.10;;;25.25;;
20026;SDS011;10174;42.688;23.344;2022-09-01T01:38:18;34.00;;;25.50;;
20026;SDS011;10174;42.688;23.344;2022-09-01T01:40:46;46.65;;;25.65;;
20026;SDS011;10174;42.688;23.344;2022-09-01T01:43:12;36.90;;;25.38;;
20026;SDS011;10174;42.688;23.344;2022-09-01T01:45:48;41.17;;;26.70;;
20026;SDS011;10174;42.688;23.344;2022-09-01T01:48:16;44.65;;;26.20;;
20026;SDS011;10174;42.688;23.344;2022-09-01T01:50:46;38.60;;;25.33;;
20026;SDS011;10174;42.688;23.344;2022-09-01T01:53:12;40.55;;;25.92;;
20026;SDS011;10174;42.688;23.344;2022-09-01T01:55:43;41.50;;;26.70;;
20026;SDS011;10174;42.688;23.344;2022-09-01T01:58:08;40.22;;;26.75;;
20026;SDS011;10174;42.688;23.344;2022-09-01T02:00:36;42.70;;;28.27;;
20026;SDS011;10174;42.688;23.344;2022-09-01T02:03:02;46.08;;;27.42;;
20026;SDS011;10174;42.688;23.344;2022-09-01T02:05:31;43.90;;;27.27;;
20026;SDS011;10174;42.688;23.344;2022-09-01T02:08:01;40.40;;;27.30;;
20026;SDS011;10174;42.688;23.344;2022-09-01T02:10:42;37.72;;;26.65;;
20026;SDS011;10174;42.688;23.344;2022-09-01T02:13:10;49.75;;;28.40;;
20026;SDS011;10174;42.688;23.344;2022-09-01T02:15:42;50.30;;;27.75;;
20026;SDS011;10174;42.688;23.344;2022-09-01T02:18:10;46.50;;;27.23;;
20026;SDS011;10174;42.688;23.344;2022-09-01T02:20:44;51.63;;;28.90;;
20026;SDS011;10174;42.688;23.344;2022-09-01T02:23:11;46.75;;;28.17;;
20026;SDS011;10174;42.688;23.344;2022-09-01T02:25:40;46.25;;;28.77;;
20026;SDS011;10174;42.688;23.344;2022-09-01T02:28:08;51.00;;;28.13;;
20026;SDS011;10174;42.688;23.344;2022-09-01T02:30:40;43.47;;;29.10;;
20026;SDS011;10174;42.688;23.344;2022-09-01T02:33:11;48.40;;;28.95;;
20026;SDS011;10174;42.688;23.344;2022-09-01T02:35:52;42.95;;;27.90;;
20026;SDS011;10174;42.688;23.344;2022-09-01T02:38:20;48.92;;;28.65;;
20026;SDS011;10174;42.688;23.344;2022-09-01T02:40:53;48.72;;;29.83;;
20026;SDS011;10174;42.688;23.344;2022-09-01T02:43:21;48.67;;;30.13;;
20026;SDS011;10174;42.688;23.344;2022-09-01T02:45:47;52.30;;;30.77;;
20026;SDS011;10174;42.688;23.344;2022-09-01T02:48:26;46.72;;;28.92;;
20026;SDS011;10174;42.688;23.344;2022-09-01T02:50:57;48.30;;;29.20;;
20026;SDS011;10174;42.688;23.344;2022-09-01T02:53:26;46.80;;;28.85;;
20026;SDS011;10174;42.688;23.344;2022-09-01T02:55:52;41.67;;;28.02;;
20026;SDS011;10174;42.688;23.344;2022-09-01T02:58:18;46.95;;;29.08;;
20026;SDS011;10174;42.688;23.344;2022-09-01T03:00:44;42.47;;;29.30;;
20026;SDS011;10174;42.688;23.344;2022-09-01T03:03:16;52.47;;;30.08;;
20026;SDS011;10174;42.688;23.344;2022-09-01T03:05:44;42.00;;;28.20;;
20026;SDS011;10174;42.688;23.344;2022-09-01T03:08:10;49.83;;;29.67;;
20026;SDS011;10174;42.688;23.344;2022-09-01T03:10:40;45.80;;;28.70;;
20026;SDS011;10174;42.688;23.344;2022-09-01T03:13:09;46.78;;;28.90;;
20026;SDS011;10174;42.688;23.344;2022-09-01T03:15:40;51.45;;;28.70;;
20026;SDS011;10174;42.688;23.344;2022-09-01T03:18:07;46.67;;;28.30;;
20026;SDS011;10174;42.688;23.344;2022-09-01T03:20:34;51.42;;;28.98;;
20026;SDS011;10174;42.688;23.344;2022-09-01T03:23:01;51.60;;;28.63;;
20026;SDS011;10174;42.688;23.344;2022-09-01T03:25:28;50.33;;;27.85;;
20026;SDS011;10174;42.688;23.344;2022-09-01T03:27:54;40.20;;;28.58;;
20026;SDS011;10174;42.688;23.344;2022-09-01T03:30:21;48.13;;;29.10;;
20026;SDS011;10174;42.688;23.344;2022-09-01T03:32:47;54.08;;;28.10;;
20026;SDS011;10174;42.688;23.344;2022-09-01T03:35:13;47.72;;;28.40;;
20026;SDS011;10174;42.688;23.344;2022-09-01T03:37:39;48.75;;;29.45;;
20026;SDS011;10174;42.688;23.344;2022-09-01T03:40:08;52.22;;;29.25;;
20026;SDS011;10174;42.688;23.344;2022-09-01T03:42:35;46.25;;;28.85;;
20026;SDS011;10174;42.688;23.344;2022-09-01T03:45:01;54.03;;;28.25;;
20026;SDS011;10174;42.688;23.344;2022-09-01T03:47:36;54.78;;;29.25;;
20026;SDS011;10174;42.688;23.344;2022-09-01T03:50:04;52.88;;;29.13;;
20026;SDS011;10174;42.688;23.344;2022-09-01T03:52:36;58.67;;;29.67;;
20026;SDS011;10174;42.688;23.344;2022-09-01T03:55:05;61.50;;;32.08;;
20026;SDS011;10174;42.688;23.344;2022-09-01T03:57:32;58.83;;;31.10;;
20026;SDS011;10174;42.688;23.344;2022-09-01T03:59:58;77.63;;;42.97;;
20026;SDS011;10174;42.688;23.344;2022-09-01T04:02:24;78.13;;;43.75;;
20026;SDS011;10174;42.688;23.344;2022-09-01T04:04:53;91.13;;;47.55;;
20026;SDS011;10174;42.688;23.344;2022-09-01T04:07:19;97.85;;;51.10;;
20026;SDS011;10174;42.688;23.344;2022-09-01T04:09:44;108.03;;;52.70;;
20026;SDS011;10174;42.688;23.344;2022-09-01T04:12:10;110.07;;;52.83;;
20026;SDS011;10174;42.688;23.344;2022-09-01T04:14:39;126.45;;;54.65;;
20026;SDS011;10174;42.688;23.344;2022-09-01T04:17:05;120.50;;;55.70;;
20026;SDS011;10174;42.688;23.344;2022-09-01T04:19:49;118.07;;;56.17;;
20026;SDS011;10174;42.688;23.344;2022-09-01T04:22:14;117.68;;;55.25;;
20026;SDS011;10174;42.688;23.344;2022-09-01T04:24:41;125.20;;;55.63;;
20026;SDS011;10174;42.688;23.344;2022-09-01T04:27:10;132.30;;;58.25;;
20026;SDS011;10174;42.688;23.344;2022-09-01T04:29:35;121.32;;;54.85;;
20026;SDS011;10174;42.688;23.344;2022-09-01T04:32:02;117.82;;;54.85;;
20026;SDS011;10174;42.688;23.344;2022-09-01T04:34:35;110.05;;;52.95;;
20026;SDS011;10174;42.688;23.344;2022-09-01T04:37:12;116.63;;;54.97;;
20026;SDS011;10174;42.688;23.344;2022-09-01T04:39:42;116.93;;;54.45;;
20026;SDS011;10174;42.688;23.344;2022-09-01T04:42:13;109.35;;;53.80;;
20026;SDS011;10174;42.688;23.344;2022-09-01T04:44:40;109.20;;;51.45;;
20026;SDS011;10174;42.688;23.344;2022-09-01T04:47:07;107.47;;;51.45;;
20026;SDS011;10174;42.688;23.344;2022-09-01T04:49:35;96.18;;;50.10;;
20026;SDS011;10174;42.688;23.344;2022-09-01T04:52:01;97.68;;;49.47;;
20026;SDS011;10174;42.688;23.344;2022-09-01T04:54:27;92.75;;;48.88;;
20026;SDS011;10174;42.688;23.344;2022-09-01T04:56:53;83.97;;;44.65;;
20026;SDS011;10174;42.688;23.344;2022-09-01T04:59:20;91.60;;;46.63;;
20026;SDS011;10174;42.688;23.344;2022-09-01T05:01:47;77.93;;;44.30;;
20026;SDS011;10174;42.688;23.344;2022-09-01T05:04:18;71.38;;;40.03;;
20026;SDS011;10174;42.688;23.344;2022-09-01T05:06:47;74.07;;;42.50;;
20026;SDS011;10174;42.688;23.344;2022-09-01T05:09:18;70.50;;;41.13;;
20026;SDS011;10174;42.688;23.344;2022-09-01T05:11:44;68.70;;;40.63;;
20026;SDS011;10174;42.688;23.344;2022-09-01T05:14:10;69.32;;;41.20;;
20026;SDS011;10174;42.688;23.344;2022-09-01T05:16:36;68.65;;;40.65;;
20026;SDS011;10174;42.688;23.344;2022-09-01T05:19:05;74.88;;;44.70;;
20026;SDS011;10174;42.688;23.344;2022-09-01T05:21:36;69.88;;;41.03;;
20026;SDS011;10174;42.688;23.344;2022-09-01T05:24:02;69.47;;;39.80;;
20026;SDS011;10174;42.688;23.344;2022-09-01T05:26:29;66.15;;;39.10;;
20026;SDS011;10174;42.688;23.344;2022-09-01T05:28:59;69.50;;;41.90;;
20026;SDS011;10174;42.688;23.344;2022-09-01T05:31:27;88.65;;;53.80;;
20026;SDS011;10174;42.688;23.344;2022-09-01T05:34:01;72.70;;;41.33;;
20026;SDS011;10174;42.688;23.344;2022-09-01T05:36:28;72.03;;;40.45;;
20026;SDS011;10174;42.688;23.344;2022-09-01T05:38:55;72.60;;;41.33;;
20026;SDS011;10174;42.688;23.344;2022-09-01T05:41:23;73.55;;;39.05;;
20026;SDS011;10174;42.688;23.344;2022-09-01T05:43:49;80.45;;;41.70;;
20026;SDS011;10174;42.688;23.344;2022-09-01T05:46:19;85.63;;;51.50;;
20026;SDS011;10174;42.688;23.344;2022-09-01T05:48:48;75.10;;;43.00;;
20026;SDS011;10174;42.688;23.344;2022-09-01T05:51:15;66.90;;;40.55;;
20026;SDS011;10174;42.688;23.344;2022-09-01T05:53:44;94.10;;;51.88;;
20026;SDS011;10174;42.688;23.344;2022-09-01T05:56:11;82.68;;;43.28;;
20026;SDS011;10174;42.688;23.344;2022-09-01T05:58:39;90.85;;;46.88;;
20026;SDS011;10174;42.688;23.344;2022-09-01T06:01:08;98.85;;;48.97;;
20026;SDS011;10174;42.688;23.344;2022-09-01T06:03:37;95.18;;;46.38;;
20026;SDS011;10174;42.688;23.344;2022-09-01T06:06:05;94.28;;;46.97;;
20026;SDS011;10174;42.688;23.344;2022-09-01T06:08:33;100.57;;;47.90;;
20026;SDS011;10174;42.688;23.344;2022-09-01T06:11:00;88.88;;;45.08;;
20026;SDS011;10174;42.688;23.344;2022-09-01T06:13:28;74.25;;;40.72;;
20026;SDS011;10174;42.688;23.344;2022-09-01T06:15:53;93.60;;;43.60;;
20026;SDS011;10174;42.688;23.344;2022-09-01T06:18:20;102.55;;;47.38;;
20026;SDS011;10174;42.688;23.344;2022-09-01T06:20:47;89.10;;;45.17;;
20026;SDS011;10174;42.688;23.344;2022-09-01T06:23:13;85.93;;;45.30;;
20026;SDS011;10174;42.688;23.344;2022-09-01T06:25:45;90.20;;;45.40;;
20026;SDS011;10174;42.688;23.344;2022-09-01T06:28:12;105.07;;;51.55;;
20026;SDS011;10174;42.688;23.344;2022-09-01T06:30:42;87.20;;;43.17;;
20026;SDS011;10174;42.688;23.344;2022-09-01T06:33:10;83.47;;;42.60;;
20026;SDS011;10174;42.688;23.344;2022-09-01T06:35:38;85.00;;;43.38;;
20026;SDS011;10174;42.688;23.344;2022-09-01T06:38:08;77.55;;;39.58;;
20026;SDS011;10174;42.688;23.344;2022-09-01T06:40:35;77.68;;;40.83;;
20026;SDS011;10174;42.688;23.344;2022-09-01T06:43:06;76.05;;;39.00;;
20026;SDS011;10174;42.688;23.344;2022-09-01T06:45:42;73.40;;;39.15;;
20026;SDS011;10174;42.688;23.344;2022-09-01T06:48:14;71.55;;;38.38;;
20026;SDS011;10174;42.688;23.344;2022-09-01T06:50:40;70.53;;;37.67;;
20026;SDS011;10174;42.688;23.344;2022-09-01T06:53:06;67.53;;;36.75;;
20026;SDS011;10174;42.688;23.344;2022-09-01T06:55:37;64.78;;;35.95;;
20026;SDS011;10174;42.688;23.344;2022-09-01T06:58:07;68.43;;;37.03;;
20026;SDS011;10174;42.688;23.344;2022-09-01T07:00:37;65.72;;;38.00;;
20026;SDS011;10174;42.688;23.344;2022-09-01T07:03:06;67.40;;;37.22;;
20026;SDS011;10174;42.688;23.344;2022-09-01T07:05:53;67.07;;;38.75;;
20026;SDS011;10174;42.688;23.344;2022-09-01T07:08:19;87.82;;;41.00;;
20026;SDS011;10174;42.688;23.344;2022-09-01T07:10:48;75.70;;;40.28;;
20026;SDS011;10174;42.688;23.344;2022-09-01T07:13:20;61.30;;;37.00;;
20026;SDS011;10174;42.688;23.344;2022-09-01T07:15:49;63.58;;;37.80;;
20026;SDS011;10174;42.688;23.344;2022-09-01T07:18:19;70.15;;;39.25;;
20026;SDS011;10174;42.688;23.344;2022-09-01T07:20:46;72.68;;;38.53;;
20026;SDS011;10174;42.688;23.344;2022-09-01T07:23:13;63.20;;;38.88;;
20026;SDS011;10174;42.688;23.344;2022-09-01T07:25:42;73.47;;;41.28;;
20026;SDS011;10174;42.688;23.344;2022-09-01T07:28:10;66.55;;;38.55;;
20026;SDS011;10174;42.688;23.344;2022-09-01T07:30:47;68.20;;;39.28;;
20026;SDS011;10174;42.688;23.344;2022-09-01T07:33:15;68.90;;;39.63;;
20026;SDS011;10174;42.688;23.344;2022-09-01T07:35:44;64.72;;;38.13;;
20026;SDS011;10174;42.688;23.344;2022-09-01T07:38:11;72.25;;;39.72;;
20026;SDS011;10174;42.688;23.344;2022-09-01T07:40:37;63.70;;;38.45;;
20026;SDS011;10174;42.688;23.344;2022-09-01T07:43:13;63.88;;;37.90;;
20026;SDS011;10174;42.688;23.344;2022-09-01T07:45:45;65.45;;;39.20;;
20026;SDS011;10174;42.688;23.344;2022-09-01T07:48:13;65.72;;;39.88;;
20026;SDS011;10174;42.688;23.344;2022-09-01T07:50:45;65.10;;;39.03;;
20026;SDS011;10174;42.688;23.344;2022-09-01T07:53:13;70.03;;;37.92;;
20026;SDS011;10174;42.688;23.344;2022-09-01T07:55:47;67.53;;;36.72;;
20026;SDS011;10174;42.688;23.344;2022-09-01T07:58:15;64.22;;;38.95;;
20026;SDS011;10174;42.688;23.344;2022-09-01T08:00:43;65.25;;;37.83;;
20026;SDS011;10174;42.688;23.344;2022-09-01T08:03:14;70.13;;;39.95;;
20026;SDS011;10174;42.688;23.344;2022-09-01T08:05:41;84.32;;;42.10;;
20026;SDS011;10174;42.688;23.344;2022-09-01T08:08:07;85.00;;;46.85;;
20026;SDS011;10174;42.688;23.344;2022-09-01T08:10:33;74.05;;;43.45;;
20026;SDS011;10174;42.688;23.344;2022-09-01T08:13:02;71.28;;;41.45;;
20026;SDS011;10174;42.688;23.344;2022-09-01T08:15:27;72.75;;;39.78;;
20026;SDS011;10174;42.688;23.344;2022-09-01T08:17:53;72.35;;;40.30;;
20026;SDS011;10174;42.688;23.344;2022-09-01T08:20:18;71.35;;;39.97;;
20026;SDS011;10174;42.688;23.344;2022-09-01T08:22:44;64.22;;;37.92;;
20026;SDS011;10174;42.688;23.344;2022-09-01T08:25:09;65.68;;;39.33;;
20026;SDS011;10174;42.688;23.344;2022-09-01T08:27:35;68.93;;;35.97;;
20026;SDS011;10174;42.688;23.344;2022-09-01T08:30:05;73.82;;;41.00;;
20026;SDS011;10174;42.688;23.344;2022-09-01T08:32:32;66.65;;;38.40;;
20026;SDS011;10174;42.688;23.344;2022-09-01T08:34:59;63.13;;;38.58;;
20026;SDS011;10174;42.688;23.344;2022-09-01T08:37:24;59.28;;;37.50;;
20026;SDS011;10174;42.688;23.344;2022-09-01T08:39:50;70.05;;;37.30;;
20026;SDS011;10174;42.688;23.344;2022-09-01T08:47:41;55.00;;;31.55;;
20026;SDS011;10174;42.688;23.344;2022-09-01T08:50:06;56.63;;;31.48;;
20026;SDS011;10174;42.688;23.344;2022-09-01T08:52:34;67.93;;;35.58;;
20026;SDS011;10174;42.688;23.344;2022-09-01T08:57:51;41.38;;;29.88;;
20026;SDS011;10174;42.688;23.344;2022-09-01T09:00:25;45.85;;;27.50;;
20026;SDS011;10174;42.688;23.344;2022-09-01T09:16:21;36.90;;;21.85;;
20026;SDS011;10174;42.688;23.344;2022-09-01T09:18:51;30.05;;;19.17;;
20026;SDS011;10174;42.688;23.344;2022-09-01T09:27:45;34.70;;;20.77;;
20026;SDS011;10174;42.688;23.344;2022-09-01T09:32:51;30.58;;;19.10;;
20026;SDS011;10174;42.688;23.344;2022-09-01T09:35:31;29.40;;;18.38;;
20026;SDS011;10174;42.688;23.344;2022-09-01T09:44:03;24.27;;;16.58;;
20026;SDS011;10174;42.688;23.344;2022-09-01T09:46:42;27.75;;;15.13;;
20026;SDS011;10174;42.688;23.344;2022-09-01T09:49:25;23.58;;;13.13;;
20026;SDS011;10174;42.688;23.344;2022-09-01T09:51:57;34.92;;;17.23;;
20026;SDS011;10174;42.688;23.344;2022-09-01T09:54:57;23.83;;;16.58;;
20026;SDS011;10174;42.688;23.344;2022-09-01T09:57:25;31.08;;;17.50;;
20026;SDS011;10174;42.688;23.344;2022-09-01T10:02:34;31.70;;;16.45;;
20026;SDS011;10174;42.688;23.344;2022-09-01T10:05:01;32.60;;;15.80;;
20026;SDS011;10174;42.688;23.344;2022-09-01T10:08:06;52.05;;;24.85;;
20026;SDS011;10174;42.688;23.344;2022-09-01T10:10:42;29.35;;;13.35;;
20026;SDS011;10174;42.688;23.344;2022-09-01T10:13:20;27.17;;;13.82;;
20026;SDS011;10174;42.688;23.344;2022-09-01T10:15:51;24.50;;;12.52;;
20026;SDS011;10174;42.688;23.344;2022-09-01T10:18:19;32.58;;;17.15;;
20026;SDS011;10174;42.688;23.344;2022-09-01T10:20:57;20.90;;;12.45;;
20026;SDS011;10174;42.688;23.344;2022-09-01T10:23:25;28.27;;;13.48;;
20026;SDS011;10174;42.688;23.344;2022-09-01T10:26:36;21.77;;;11.35;;
20026;SDS011;10174;42.688;23.344;2022-09-01T10:28:52;20.90;;;12.10;;
20026;SDS011;10174;42.688;23.344;2022-09-01T10:31:24;26.20;;;12.48;;
20026;SDS011;10174;42.688;23.344;2022-09-01T10:33:50;22.00;;;12.20;;
20026;SDS011;10174;42.688;23.344;2022-09-01T10:36:16;23.25;;;11.68;;
20026;SDS011;10174;42.688;23.344;2022-09-01T10:38:43;19.67;;;11.13;;
20026;SDS011;10174;42.688;23.344;2022-09-01T10:41:09;15.25;;;12.38;;
20026;SDS011;10174;42.688;23.344;2022-09-01T10:44:25;17.83;;;11.40;;
20026;SDS011;10174;42.688;23.344;2022-09-01T10:46:59;25.25;;;11.50;;
20026;SDS011;10174;42.688;23.344;2022-09-01T10:51:52;30.27;;;12.23;;
20026;SDS011;10174;42.688;23.344;2022-09-01T10:57:07;21.60;;;12.40;;
20026;SDS011;10174;42.688;23.344;2022-09-01T10:59:35;25.90;;;11.90;;
20026;SDS011;10174;42.688;23.344;2022-09-01T11:07:04;20.42;;;12.32;;
20026;SDS011;10174;42.688;23.344;2022-09-01T11:12:46;23.90;;;11.80;;
20026;SDS011;10174;42.688;23.344;2022-09-01T11:18:28;22.92;;;11.15;;
20026;SDS011;10174;42.688;23.344;2022-09-01T11:21:12;23.90;;;12.55;;
20026;SDS011;10174;42.688;23.344;2022-09-01T11:23:49;23.45;;;15.23;;
20026;SDS011;10174;42.688;23.344;2022-09-01T11:32:15;24.25;;;12.70;;
20026;SDS011;10174;42.688;23.344;2022-09-01T11:34:42;20.92;;;12.32;;
20026;SDS011;10174;42.688;23.344;2022-09-01T11:37:16;28.40;;;12.70;;
20026;SDS011;10174;42.688;23.344;2022-09-01T11:39:47;28.60;;;12.68;;
20026;SDS011;10174;42.688;23.344;2022-09-01T11:42:28;21.20;;;11.95;;
20026;SDS011;10174;42.688;23.344;2022-09-01T11:47:49;25.85;;;10.48;;
20026;SDS011;10174;42.688;23.344;2022-09-01T11:53:07;18.08;;;11.00;;
20026;SDS011;10174;42.688;23.344;2022-09-01T11:55:37;21.90;;;11.40;;
20026;SDS011;10174;42.688;23.344;2022-09-01T11:58:04;17.15;;;10.60;;
20026;SDS011;10174;42.688;23.344;2022-09-01T12:00:34;15.48;;;10.07;;
20026;SDS011;10174;42.688;23.344;2022-09-01T12:03:02;15.60;;;11.23;;
20026;SDS011;10174;42.688;23.344;2022-09-01T12:05:43;17.95;;;10.57;;
20026;SDS011;10174;42.688;23.344;2022-09-01T12:08:12;17.33;;;11.13;;
20026;SDS011;10174;42.688;23.344;2022-09-01T12:10:39;23.60;;;12.70;;
20026;SDS011;10174;42.688;23.344;2022-09-01T12:13:16;21.75;;;13.05;;
20026;SDS011;10174;42.688;23.344;2022-09-01T12:15:50;20.42;;;12.98;;
20026;SDS011;10174;42.688;23.344;2022-09-01T12:18:42;19.10;;;12.60;;
20026;SDS011;10174;42.688;23.344;2022-09-01T12:21:15;24.75;;;13.27;;
20026;SDS011;10174;42.688;23.344;2022-09-01T12:23:47;20.88;;;13.38;;
20026;SDS011;10174;42.688;23.344;2022-09-01T12:26:14;23.27;;;13.48;;
20026;SDS011;10174;42.688;23.344;2022-09-01T12:28:45;60.00;;;14.77;;
20026;SDS011;10174;42.688;23.344;2022-09-01T12:31:15;28.05;;;14.25;;
20026;SDS011;10174;42.688;23.344;2022-09-01T12:33:44;30.92;;;13.98;;
20026;SDS011;10174;42.688;23.344;2022-09-01T12:38:56;24.13;;;14.23;;
20026;SDS011;10174;42.688;23.344;2022-09-01T12:41:44;29.70;;;13.85;;
20026;SDS011;10174;42.688;23.344;2022-09-01T12:44:28;27.60;;;15.32;;
20026;SDS011;10174;42.688;23.344;2022-09-01T12:46:53;23.40;;;14.55;;
20026;SDS011;10174;42.688;23.344;2022-09-01T12:49:24;25.95;;;14.00;;
20026;SDS011;10174;42.688;23.344;2022-09-01T12:52:05;23.48;;;14.18;;
20026;SDS011;10174;42.688;23.344;2022-09-01T12:54:49;34.95;;;20.20;;
20026;SDS011;10174;42.688;23.344;2022-09-01T12:57:24;42.58;;;18.73;;
20026;SDS011;10174;42.688;23.344;2022-09-01T13:05:34;23.80;;;13.52;;
20026;SDS011;10174;42.688;23.344;2022-09-01T13:08:02;31.90;;;13.15;;
20026;SDS011;10174;42.688;23.344;2022-09-01T13:10:52;41.88;;;19.63;;
20026;SDS011;10174;42.688;23.344;2022-09-01T13:13:17;29.85;;;15.38;;
20026;SDS011;10174;42.688;23.344;2022-09-01T13:15:45;26.27;;;14.13;;
20026;SDS011;10174;42.688;23.344;2022-09-01T13:18:13;38.08;;;15.05;;
20026;SDS011;10174;42.688;23.344;2022-09-01T13:20:39;43.35;;;17.52;;
20026;SDS011;10174;42.688;23.344;2022-09-01T13:23:06;29.45;;;15.40;;
20026;SDS011;10174;42.688;23.344;2022-09-01T13:25:32;23.75;;;13.40;;
20026;SDS011;10174;42.688;23.344;2022-09-01T13:27:57;24.13;;;13.38;;
20026;SDS011;10174;42.688;23.344;2022-09-01T13:30:25;23.00;;;12.75;;
20026;SDS011;10174;42.688;23.344;2022-09-01T13:32:52;17.40;;;12.60;;
20026;SDS011;10174;42.688;23.344;2022-09-01T13:35:19;29.20;;;13.55;;
20026;SDS011;10174;42.688;23.344;2022-09-01T13:37:46;23.75;;;12.95;;
20026;SDS011;10174;42.688;23.344;2022-09-01T13:40:12;28.17;;;13.00;;
20026;SDS011;10174;42.688;23.344;2022-09-01T13:42:44;24.92;;;13.15;;
20026;SDS011;10174;42.688;23.344;2022-09-01T13:45:12;22.52;;;13.32;;
20026;SDS011;10174;42.688;23.344;2022-09-01T13:47:40;22.08;;;11.35;;
20026;SDS011;10174;42.688;23.344;2022-09-01T13:50:08;21.35;;;12.90;;
20026;SDS011;10174;42.688;23.344;2022-09-01T13:52:35;25.98;;;13.93;;
20026;SDS011;10174;42.688;23.344;2022-09-01T13:55:06;16.58;;;11.50;;
20026;SDS011;10174;42.688;23.344;2022-09-01T13:57:33;20.52;;;12.50;;
20026;SDS011;10174;42.688;23.344;2022-09-01T13:59:59;26.38;;;13.77;;
20026;SDS011;10174;42.688;23.344;2022-09-01T14:02:25;22.20;;;14.18;;
20026;SDS011;10174;42.688;23.344;2022-09-01T14:04:50;32.17;;;16.52;;
20026;SDS011;10174;42.688;23.344;2022-09-01T14:07:16;28.52;;;15.70;;
20026;SDS011;10174;42.688;23.344;2022-09-01T14:09:43;35.10;;;17.67;;
20026;SDS011;10174;42.688;23.344;2022-09-01T14:12:09;36.38;;;16.17;;
20026;SDS011;10174;42.688;23.344;2022-09-01T14:14:35;22.00;;;15.02;;
20026;SDS011;10174;42.688;23.344;2022-09-01T14:17:00;22.23;;;14.48;;
20026;SDS011;10174;42.688;23.344;2022-09-01T14:19:27;19.48;;;13.85;;
20026;SDS011;10174;42.688;23.344;2022-09-01T14:21:53;22.05;;;13.52;;
20026;SDS011;10174;42.688;23.344;2022-09-01T14:24:18;20.05;;;14.10;;
20026;SDS011;10174;42.688;23.344;2022-09-01T14:26:45;23.33;;;14.45;;
20026;SDS011;10174;42.688;23.344;2022-09-01T14:29:11;21.30;;;14.93;;
20026;SDS011;10174;42.688;23.344;2022-09-01T14:31:37;22.38;;;14.85;;
20026;SDS011;10174;42.688;23.344;2022-09-01T14:34:02;24.15;;;15.13;;
20026;SDS011;10174;42.688;23.344;2022-09-01T14:36:29;26.27;;;14.48;;
20026;SDS011;10174;42.688;23.344;2022-09-01T14:38:55;22.65;;;14.55;;
20026;SDS011;10174;42.688;23.344;2022-09-01T14:41:21;28.20;;;15.80;;
20026;SDS011;10174;42.688;23.344;2022-09-01T14:43:52;22.75;;;13.82;;
20026;SDS011;10174;42.688;23.344;2022-09-01T14:46:19;23.10;;;13.95;;
20026;SDS011;10174;42.688;23.344;2022-09-01T14:48:45;25.00;;;14.73;;
20026;SDS011;10174;42.688;23.344;2022-09-01T14:51:18;24.70;;;14.57;;
20026;SDS011;10174;42.688;23.344;2022-09-01T14:53:48;24.48;;;15.25;;
20026;SDS011;10174;42.688;23.344;2022-09-01T14:56:14;25.35;;;14.80;;
20026;SDS011;10174;42.688;23.344;2022-09-01T14:58:42;24.13;;;13.73;;
20026;SDS011;10174;42.688;23.344;2022-09-01T15:01:09;27.42;;;15.18;;
20026;SDS011;10174;42.688;23.344;2022-09-01T15:03:35;32.83;;;17.27;;
20026;SDS011;10174;42.688;23.344;2022-09-01T15:06:00;21.25;;;14.85;;
20026;SDS011;10174;42.688;23.344;2022-09-01T15:08:25;24.85;;;14.90;;
20026;SDS011;10174;42.688;23.344;2022-09-01T15:10:51;22.08;;;15.48;;
20026;SDS011;10174;42.688;23.344;2022-09-01T15:13:16;28.50;;;15.65;;
20026;SDS011;10174;42.688;23.344;2022-09-01T15:15:41;25.00;;;18.63;;
20026;SDS011;10174;42.688;23.344;2022-09-01T15:18:07;24.15;;;17.20;;
20026;SDS011;10174;42.688;23.344;2022-09-01T15:20:35;24.85;;;16.05;;
20026;SDS011;10174;42.688;23.344;2022-09-01T15:23:09;30.75;;;15.25;;
20026;SDS011;10174;42.688;23.344;2022-09-01T15:25:48;20.98;;;15.48;;
20026;SDS011;10174;42.688;23.344;2022-09-01T15:28:16;23.73;;;15.18;;
20026;SDS011;10174;42.688;23.344;2022-09-01T15:30:42;26.40;;;15.35;;
20026;SDS011;10174;42.688;23.344;2022-09-01T15:33:09;21.48;;;14.80;;
20026;SDS011;10174;42.688;23.344;2022-09-01T15:35:35;20.13;;;14.55;;
20026;SDS011;10174;42.688;23.344;2022-09-01T15:38:01;28.65;;;16.33;;
20026;SDS011;10174;42.688;23.344;2022-09-01T15:40:27;29.15;;;17.52;;
20026;SDS011;10174;42.688;23.344;2022-09-01T15:42:53;26.48;;;16.60;;